| time (UTC) | temp F | wind direction | speed MPH | gust MPH | rain 1hr in | rain 24hr in | rain mn in | humidity % | barometer mb |
| 20260507104515 | 50 | 265 | 1.0 | 8.0 | 0.00 | 0.00 | 0.00 | 65 | 1020.8 |
| 20260507103014 | 50 | 260 | 3.0 | 7.0 | 0.00 | 0.00 | 0.00 | 65 | 1020.9 |
| 20260507101512 | 51 | 281 | 3.0 | 8.0 | 0.00 | 0.00 | 0.00 | 65 | 1021.0 |
| 20260507100017 | 51 | 294 | 1.0 | 10.0 | 0.00 | 0.00 | 0.00 | 65 | 1021.0 |
| 20260507094507 | 51 | 257 | 3.0 | 8.0 | 0.00 | 0.00 | 0.00 | 65 | 1021.1 |
| 20260507093007 | 51 | 254 | 2.0 | 8.0 | 0.00 | 0.00 | 0.00 | 65 | 1021.2 |
| 20260507091505 | 51 | 276 | 3.0 | 8.0 | 0.00 | 0.00 | 0.00 | 64 | 1021.3 |
| 20260507090007 | 51 | 257 | 2.0 | 7.0 | 0.00 | 0.00 | 0.00 | 64 | 1021.4 |
| 20260507084536 | 51 | 272 | 2.0 | 9.0 | 0.00 | 0.00 | 0.00 | 64 | 1021.4 |
| 20260507083031 | 51 | 260 | 3.0 | 9.0 | 0.00 | 0.00 | 0.00 | 64 | 1021.5 |
| 20260507081527 | 51 | 256 | 1.0 | 8.0 | 0.00 | 0.00 | 0.00 | 64 | 1021.4 |
| 20260507080025 | 52 | 260 | 2.0 | 8.0 | 0.00 | 0.00 | 0.00 | 65 | 1021.4 |
| 20260507074524 | 52 | 233 | 3.0 | 8.0 | 0.00 | 0.00 | 0.00 | 64 | 1021.3 |
| 20260507073021 | 52 | 283 | 2.0 | 8.0 | 0.00 | 0.00 | 0.00 | 64 | 1021.3 |
| 20260507071519 | 52 | 262 | 3.0 | 8.0 | 0.00 | 0.00 | 0.00 | 64 | 1021.2 |
| 20260507070026 | 52 | 238 | 1.0 | 7.0 | 0.00 | 0.00 | 0.00 | 63 | 1021.2 |
| 20260507064516 | 52 | 285 | 3.0 | 7.0 | 0.00 | 0.00 | 0.00 | 63 | 1021.2 |
| 20260507063014 | 52 | 223 | 1.0 | 9.0 | 0.00 | 0.00 | 0.00 | 63 | 1021.2 |
| 20260507061510 | 53 | 247 | 3.0 | 9.0 | 0.00 | 0.00 | 0.00 | 63 | 1021.1 |
| 20260507060013 | 53 | 247 | 3.0 | 8.0 | 0.00 | 0.00 | 0.00 | 63 | 1021.2 |
| 20260507054505 | 53 | 261 | 4.0 | 9.0 | 0.00 | 0.00 | 0.00 | 63 | 1021.1 |
| 20260507053005 | 54 | 255 | 3.0 | 9.0 | 0.00 | 0.00 | 0.00 | 62 | 1021.0 |
| 20260507051600 | 54 | 249 | 2.0 | 9.0 | 0.00 | 0.00 | 0.00 | 62 | 1021.0 |
| 20260507050057 | 54 | 240 | 4.0 | 11.0 | 0.00 | 0.00 | 0.00 | 62 | 1021.0 |
| 20260507044622 | 54 | 186 | 5.0 | 12.0 | 0.00 | 0.00 | 0.00 | 62 | 1021.1 |
| 20260507043053 | 55 | 228 | 6.0 | 15.0 | 0.00 | 0.00 | 0.00 | 62 | 1021.1 |
| 20260507041553 | 55 | 281 | 5.0 | 11.0 | 0.00 | 0.00 | 0.00 | 62 | 1020.9 |
| 20260507040047 | 56 | 255 | 7.0 | 14.0 | 0.00 | 0.00 | 0.00 | 62 | 1020.6 |
| 20260507034545 | 56 | 252 | 6.0 | 12.0 | 0.00 | 0.00 | 0.00 | 62 | 1020.4 |
| 20260507033049 | 57 | 260 | 6.0 | 12.0 | 0.00 | 0.00 | 0.00 | 62 | 1020.4 |
| 20260507031551 | 57 | 233 | 4.0 | 12.0 | 0.00 | 0.00 | 0.00 | 62 | 1020.2 |
| 20260507030004 | 58 | 230 | 4.0 | 9.0 | 0.00 | 0.00 | 0.00 | 61 | 1020.1 |
| 20260507024614 | 59 | 262 | 5.0 | 10.0 | 0.00 | 0.00 | 0.00 | 60 | 1020.0 |
| 20260507023054 | 60 | 246 | 3.0 | 11.0 | 0.00 | 0.00 | 0.00 | 59 | 1020.0 |
| 20260507021556 | 60 | 262 | 4.0 | 9.0 | 0.00 | 0.00 | 0.00 | 58 | 1020.0 |
| 20260507020056 | 61 | 247 | 3.0 | 8.0 | 0.00 | 0.00 | 0.00 | 57 | 1020.1 |
| 20260507014554 | 62 | 260 | 3.0 | 10.0 | 0.00 | 0.00 | 0.00 | 57 | 1020.2 |
| 20260507013041 | 64 | 266 | 2.0 | 6.0 | 0.00 | 0.00 | 0.00 | 55 | 1020.3 |
| 20260507011545 | 65 | 269 | 0.0 | 3.0 | 0.00 | 0.00 | 0.00 | 54 | 1020.2 |
| 20260507010042 | 66 | 271 | 0.0 | 2.0 | 0.00 | 0.00 | 0.00 | 54 | 1020.3 |
| 20260507004535 | 66 | 269 | 0.0 | 2.0 | 0.00 | 0.00 | 0.00 | 53 | 1020.3 |
| 20260507003005 | 66 | 269 | 0.0 | 4.0 | 0.00 | 0.00 | 0.00 | 52 | 1020.3 |
| 20260507001505 | 66 | 278 | 0.0 | 5.0 | 0.00 | 0.00 | 0.00 | 51 | 1020.3 |
| 20260507000035 | 68 | 249 | 0.0 | 3.0 | 0.00 | 0.00 | 0.00 | 50 | 1020.3 |
| 20260506234541 | 66 | 250 | 0.0 | 2.0 | 0.00 | 0.00 | 0.00 | 51 | 1020.2 |
| 20260506233030 | 66 | 252 | 1.0 | 7.0 | 0.00 | 0.00 | 0.00 | 50 | 1020.3 |
| 20260506231528 | 68 | 314 | 1.0 | 4.0 | 0.00 | 0.00 | 0.00 | 48 | 1020.2 |
| 20260506230026 | 68 | 268 | 1.0 | 3.0 | 0.00 | 0.00 | 0.00 | 48 | 1020.4 |
| 20260506224525 | 65 | 267 | 0.0 | 6.0 | 0.00 | 0.00 | 0.00 | 53 | 1020.5 |
| 20260506223019 | 65 | 294 | 0.0 | 5.0 | 0.00 | 0.00 | 0.00 | 51 | 1020.6 |
| 20260506221515 | 66 | 298 | 1.0 | 3.0 | 0.00 | 0.00 | 0.00 | 52 | 1020.8 |
| 20260506220015 | 65 | 307 | 3.0 | 6.0 | 0.00 | 0.00 | 0.00 | 53 | 1020.7 |
| 20260506214510 | 64 | 269 | 0.0 | 4.0 | 0.00 | 0.00 | 0.00 | 54 | 1020.7 |
| 20260506213008 | 64 | 256 | 1.0 | 5.0 | 0.00 | 0.00 | 0.00 | 57 | 1021.0 |
| 20260506211509 | 63 | 254 | 3.0 | 5.0 | 0.00 | 0.00 | 0.00 | 56 | 1021.2 |
| 20260506210012 | 62 | 249 | 2.0 | 5.0 | 0.00 | 0.00 | 0.00 | 58 | 1021.1 |
| 20260506204506 | 63 | 237 | 0.0 | 5.0 | 0.00 | 0.00 | 0.00 | 57 | 1021.1 |
| 20260506203001 | 64 | 313 | 0.0 | 3.0 | 0.00 | 0.00 | 0.00 | 57 | 1021.0 |
| 20260506201558 | 61 | 263 | 0.0 | 5.0 | 0.00 | 0.00 | 0.00 | 60 | 1021.0 |
| 20260506200104 | 60 | 262 | 1.0 | 5.0 | 0.00 | 0.00 | 0.00 | 62 | 1021.1 |
| 20260506194557 | 60 | 269 | 0.0 | 5.0 | 0.00 | 0.00 | 0.00 | 62 | 1021.3 |
| 20260506193025 | 60 | 261 | 1.0 | 5.0 | 0.00 | 0.00 | 0.00 | 60 | 1021.2 |
| 20260506191526 | 60 | 260 | 1.0 | 5.0 | 0.00 | 0.00 | 0.00 | 61 | 1021.1 |
| 20260506190022 | 60 | 253 | 1.0 | 5.0 | 0.00 | 0.00 | 0.00 | 61 | 1021.2 |
| 20260506184522 | 59 | 252 | 1.0 | 4.0 | 0.00 | 0.00 | 0.00 | 63 | 1021.1 |
| 20260506183022 | 58 | 256 | 1.0 | 5.0 | 0.00 | 0.00 | 0.00 | 63 | 1021.1 |
| 20260506181521 | 58 | 258 | 1.0 | 5.0 | 0.00 | 0.00 | 0.00 | 63 | 1021.1 |
| 20260506180025 | 59 | 262 | 1.0 | 5.0 | 0.00 | 0.00 | 0.00 | 62 | 1021.1 |
| 20260506174519 | 58 | 274 | 2.0 | 6.0 | 0.00 | 0.00 | 0.00 | 63 | 1020.9 |
| 20260506173019 | 57 | 263 | 0.0 | 2.0 | 0.00 | 0.00 | 0.00 | 66 | 1021.0 |
| 20260506171516 | 55 | 262 | 1.0 | 7.0 | 0.00 | 0.00 | 0.00 | 67 | 1021.0 |
| 20260506170011 | 55 | 272 | 2.0 | 7.0 | 0.00 | 0.00 | 0.00 | 67 | 1020.9 |
| 20260506164510 | 55 | 270 | 2.0 | 7.0 | 0.00 | 0.00 | 0.00 | 67 | 1020.8 |
| 20260506163011 | 56 | 272 | 2.0 | 4.0 | 0.00 | 0.00 | 0.00 | 65 | 1020.6 |
| 20260506161508 | 56 | 47 | 0.0 | 4.0 | 0.00 | 0.00 | 0.00 | 68 | 1020.4 |
| 20260506160005 | 54 | 151 | 1.0 | 4.0 | 0.00 | 0.00 | 0.00 | 71 | 1020.2 |
| 20260506154503 | 53 | 251 | 0.0 | 7.0 | 0.00 | 0.00 | 0.00 | 71 | 1020.6 |
| 20260506153001 | 53 | 248 | 4.0 | 9.0 | 0.00 | 0.00 | 0.00 | 70 | 1020.8 |
| 20260506151603 | 53 | 252 | 3.0 | 8.0 | 0.00 | 0.00 | 0.00 | 71 | 1020.8 |
| 20260506150056 | 53 | 269 | 3.0 | 8.0 | 0.00 | 0.00 | 0.00 | 70 | 1020.6 |
| 20260506144551 | 54 | 262 | 2.0 | 7.0 | 0.00 | 0.00 | 0.00 | 70 | 1020.4 |
| 20260506143049 | 54 | 274 | 1.0 | 3.0 | 0.00 | 0.00 | 0.00 | 70 | 1020.0 |
| 20260506141548 | 54 | 273 | 0.0 | 3.0 | 0.00 | 0.00 | 0.00 | 70 | 1020.1 |
| 20260506140047 | 54 | 274 | 0.0 | 3.0 | 0.00 | 0.00 | 0.00 | 70 | 1019.9 |
| 20260506134517 | 54 | 275 | 0.0 | 4.0 | 0.00 | 0.00 | 0.00 | 70 | 1019.7 |
| 20260506133015 | 54 | 272 | 1.0 | 4.0 | 0.00 | 0.00 | 0.00 | 70 | 1019.5 |
| 20260506131511 | 54 | 265 | 0.0 | 2.0 | 0.00 | 0.00 | 0.00 | 70 | 1019.5 |
| 20260506130014 | 54 | 262 | 0.0 | 3.0 | 0.00 | 0.00 | 0.00 | 70 | 1019.3 |
| 20260506124511 | 54 | 252 | 0.0 | 0.0 | 0.00 | 0.00 | 0.00 | 70 | 1019.3 |
| 20260506123112 | 54 | 256 | 0.0 | 3.0 | 0.00 | 0.00 | 0.00 | 70 | 1019.4 |
| 20260506121510 | 54 | 256 | 0.0 | 5.0 | 0.00 | 0.00 | 0.00 | 70 | 1019.3 |
| 20260506120009 | 54 | 260 | 0.0 | 5.0 | 0.00 | 0.00 | 0.00 | 70 | 1019.2 |
| 20260506114505 | 54 | 250 | 0.0 | 3.0 | 0.00 | 0.00 | 0.00 | 70 | 1019.1 |
| 20260506113005 | 54 | 248 | 1.0 | 5.0 | 0.00 | 0.00 | 0.00 | 69 | 1018.9 |
| 20260506111559 | 54 | 262 | 1.0 | 4.0 | 0.00 | 0.00 | 0.00 | 69 | 1018.9 |
| 20260506110103 | 55 | 262 | 0.0 | 4.0 | 0.00 | 0.00 | 0.00 | 69 | 1018.7 |